sensor_id;sensor_type;location;lat;lon;timestamp;pressure;altitude;pressure_sealevel;temperature;humidity
19789;BME280;10054;59.332;18.244;2023-02-04T00:00:45;102144.86;;;-3.63;100.00
19789;BME280;10054;59.332;18.244;2023-02-04T00:03:15;102149.13;;;-3.65;100.00
19789;BME280;10054;59.332;18.244;2023-02-04T00:05:44;102159.05;;;-3.63;100.00
19789;BME280;10054;59.332;18.244;2023-02-04T00:08:13;102161.69;;;-3.60;100.00
19789;BME280;10054;59.332;18.244;2023-02-04T00:10:42;102169.45;;;-3.58;100.00
19789;BME280;10054;59.332;18.244;2023-02-04T00:13:11;102175.94;;;-3.57;100.00
19789;BME280;10054;59.332;18.244;2023-02-04T00:15:40;102172.52;;;-3.56;100.00
19789;BME280;10054;59.332;18.244;2023-02-04T00:18:10;102188.02;;;-3.54;100.00
19789;BME280;10054;59.332;18.244;2023-02-04T00:20:38;102188.45;;;-3.55;100.00
19789;BME280;10054;59.332;18.244;2023-02-04T00:23:07;102190.64;;;-3.53;100.00
19789;BME280;10054;59.332;18.244;2023-02-04T00:25:36;102194.95;;;-3.52;100.00
19789;BME280;10054;59.332;18.244;2023-02-04T00:28:05;102212.20;;;-3.49;100.00
19789;BME280;10054;59.332;18.244;2023-02-04T00:30:34;102210.95;;;-3.48;100.00
19789;BME280;10054;59.332;18.244;2023-02-04T00:33:03;102204.50;;;-3.48;100.00
19789;BME280;10054;59.332;18.244;2023-02-04T00:35:32;102208.75;;;-3.50;100.00
19789;BME280;10054;59.332;18.244;2023-02-04T00:38:04;102215.17;;;-3.51;100.00
19789;BME280;10054;59.332;18.244;2023-02-04T00:40:33;102216.81;;;-3.55;100.00
19789;BME280;10054;59.332;18.244;2023-02-04T00:43:02;102216.37;;;-3.56;100.00
19789;BME280;10054;59.332;18.244;2023-02-04T00:45:31;102230.10;;;-3.57;100.00
19789;BME280;10054;59.332;18.244;2023-02-04T00:48:00;102231.39;;;-3.57;100.00
19789;BME280;10054;59.332;18.244;2023-02-04T00:50:30;102234.00;;;-3.55;100.00
19789;BME280;10054;59.332;18.244;2023-02-04T00:52:59;102231.42;;;-3.55;100.00
19789;BME280;10054;59.332;18.244;2023-02-04T00:55:29;102240.03;;;-3.55;100.00
19789;BME280;10054;59.332;18.244;2023-02-04T00:57:58;102240.91;;;-3.54;100.00
19789;BME280;10054;59.332;18.244;2023-02-04T01:00:27;102245.19;;;-3.55;100.00
19789;BME280;10054;59.332;18.244;2023-02-04T01:02:57;102251.19;;;-3.56;100.00
19789;BME280;10054;59.332;18.244;2023-02-04T01:05:25;102250.35;;;-3.55;100.00
19789;BME280;10054;59.332;18.244;2023-02-04T01:07:54;102244.32;;;-3.55;100.00
19789;BME280;10054;59.332;18.244;2023-02-04T01:10:25;102253.31;;;-3.57;100.00
19789;BME280;10054;59.332;18.244;2023-02-04T01:12:54;102247.22;;;-3.60;100.00
19789;BME280;10054;59.332;18.244;2023-02-04T01:15:23;102248.03;;;-3.63;100.00
19789;BME280;10054;59.332;18.244;2023-02-04T01:17:53;102255.66;;;-3.68;100.00
19789;BME280;10054;59.332;18.244;2023-02-04T01:20:22;102261.63;;;-3.70;100.00
19789;BME280;10054;59.332;18.244;2023-02-04T01:22:51;102255.17;;;-3.70;100.00
19789;BME280;10054;59.332;18.244;2023-02-04T01:25:20;102269.77;;;-3.71;100.00
19789;BME280;10054;59.332;18.244;2023-02-04T01:27:48;102265.04;;;-3.73;100.00
19789;BME280;10054;59.332;18.244;2023-02-04T01:30:17;102270.61;;;-3.73;100.00
19789;BME280;10054;59.332;18.244;2023-02-04T01:32:46;102279.19;;;-3.74;100.00
19789;BME280;10054;59.332;18.244;2023-02-04T01:35:15;102273.13;;;-3.76;100.00
19789;BME280;10054;59.332;18.244;2023-02-04T01:37:44;102286.85;;;-3.77;100.00
19789;BME280;10054;59.332;18.244;2023-02-04T01:40:14;102291.10;;;-3.79;100.00
19789;BME280;10054;59.332;18.244;2023-02-04T01:42:43;102294.06;;;-3.81;100.00
19789;BME280;10054;59.332;18.244;2023-02-04T01:45:12;102284.13;;;-3.83;100.00
19789;BME280;10054;59.332;18.244;2023-02-04T01:47:41;102299.98;;;-3.85;100.00
19789;BME280;10054;59.332;18.244;2023-02-04T01:50:13;102301.66;;;-3.87;100.00
19789;BME280;10054;59.332;18.244;2023-02-04T01:52:44;102305.06;;;-3.88;100.00
19789;BME280;10054;59.332;18.244;2023-02-04T01:55:19;102316.67;;;-3.88;100.00
19789;BME280;10054;59.332;18.244;2023-02-04T01:57:49;102316.22;;;-3.89;100.00
19789;BME280;10054;59.332;18.244;2023-02-04T02:00:30;102313.11;;;-3.93;100.00
19789;BME280;10054;59.332;18.244;2023-02-04T02:02:59;102320.39;;;-3.94;100.00
19789;BME280;10054;59.332;18.244;2023-02-04T02:05:41;102320.39;;;-3.94;100.00
19789;BME280;10054;59.332;18.244;2023-02-04T02:08:11;102332.45;;;-3.93;100.00
19789;BME280;10054;59.332;18.244;2023-02-04T02:10:43;102339.34;;;-3.92;100.00
19789;BME280;10054;59.332;18.244;2023-02-04T02:13:15;102336.77;;;-3.92;100.00
19789;BME280;10054;59.332;18.244;2023-02-04T02:15:46;102336.80;;;-3.91;100.00
19789;BME280;10054;59.332;18.244;2023-02-04T02:18:15;102349.31;;;-3.89;100.00
19789;BME280;10054;59.332;18.244;2023-02-04T02:20:44;102348.89;;;-3.88;100.00
19789;BME280;10054;59.332;18.244;2023-02-04T02:23:46;102361.82;;;-3.87;100.00
19789;BME280;10054;59.332;18.244;2023-02-04T02:26:16;102366.14;;;-3.86;100.00
19789;BME280;10054;59.332;18.244;2023-02-04T02:28:46;102366.59;;;-3.85;100.00
19789;BME280;10054;59.332;18.244;2023-02-04T02:31:19;102367.92;;;-3.83;100.00
19789;BME280;10054;59.332;18.244;2023-02-04T02:33:48;102375.66;;;-3.83;100.00
19789;BME280;10054;59.332;18.244;2023-02-04T02:36:17;102386.84;;;-3.83;100.00
19789;BME280;10054;59.332;18.244;2023-02-04T02:38:46;102393.70;;;-3.83;100.00
19789;BME280;10054;59.332;18.244;2023-02-04T02:41:15;102388.59;;;-3.82;100.00
19789;BME280;10054;59.332;18.244;2023-02-04T02:43:44;102411.83;;;-3.80;100.00
19789;BME280;10054;59.332;18.244;2023-02-04T02:46:13;102410.92;;;-3.82;100.00
19789;BME280;10054;59.332;18.244;2023-02-04T02:48:42;102409.63;;;-3.82;100.00
19789;BME280;10054;59.332;18.244;2023-02-04T02:51:11;102422.52;;;-3.82;100.00
19789;BME280;10054;59.332;18.244;2023-02-04T02:53:40;102429.84;;;-3.82;100.00
19789;BME280;10054;59.332;18.244;2023-02-04T02:56:09;102429.02;;;-3.81;100.00
19789;BME280;10054;59.332;18.244;2023-02-04T02:58:38;102415.25;;;-3.81;100.00
19789;BME280;10054;59.332;18.244;2023-02-04T03:01:09;102424.69;;;-3.82;100.00
19789;BME280;10054;59.332;18.244;2023-02-04T03:03:47;102424.69;;;-3.82;100.00
19789;BME280;10054;59.332;18.244;2023-02-04T03:06:26;102420.78;;;-3.83;100.00
19789;BME280;10054;59.332;18.244;2023-02-04T03:08:52;102417.25;;;-3.87;100.00
19789;BME280;10054;59.332;18.244;2023-02-04T03:11:23;102427.03;;;-3.91;100.00
19789;BME280;10054;59.332;18.244;2023-02-04T03:13:53;102437.68;;;-3.94;100.00
19789;BME280;10054;59.332;18.244;2023-02-04T03:16:22;102431.66;;;-3.95;100.00
19789;BME280;10054;59.332;18.244;2023-02-04T03:18:51;102442.75;;;-3.98;100.00
19789;BME280;10054;59.332;18.244;2023-02-04T03:21:21;102441.88;;;-3.98;100.00
19789;BME280;10054;59.332;18.244;2023-02-04T03:23:49;102443.63;;;-3.97;100.00
19789;BME280;10054;59.332;18.244;2023-02-04T03:26:18;102446.58;;;-3.99;100.00
19789;BME280;10054;59.332;18.244;2023-02-04T03:28:47;102443.88;;;-4.04;100.00
19789;BME280;10054;59.332;18.244;2023-02-04T03:31:16;102445.51;;;-4.07;100.00
19789;BME280;10054;59.332;18.244;2023-02-04T03:33:45;102462.51;;;-4.14;100.00
19789;BME280;10054;59.332;18.244;2023-02-04T03:36:14;102468.03;;;-4.16;100.00
19789;BME280;10054;59.332;18.244;2023-02-04T03:38:43;102469.24;;;-4.19;100.00
19789;BME280;10054;59.332;18.244;2023-02-04T03:41:12;102479.00;;;-4.23;100.00
19789;BME280;10054;59.332;18.244;2023-02-04T03:43:41;102471.15;;;-4.27;100.00
19789;BME280;10054;59.332;18.244;2023-02-04T03:46:09;102486.56;;;-4.29;100.00
19789;BME280;10054;59.332;18.244;2023-02-04T03:48:38;102485.23;;;-4.31;100.00
19789;BME280;10054;59.332;18.244;2023-02-04T03:51:07;102491.17;;;-4.33;100.00
19789;BME280;10054;59.332;18.244;2023-02-04T03:53:36;102497.24;;;-4.31;100.00
19789;BME280;10054;59.332;18.244;2023-02-04T03:56:05;102501.11;;;-4.31;100.00
19789;BME280;10054;59.332;18.244;2023-02-04T03:58:34;102502.81;;;-4.32;100.00
19789;BME280;10054;59.332;18.244;2023-02-04T04:01:03;102501.84;;;-4.35;100.00
19789;BME280;10054;59.332;18.244;2023-02-04T04:03:31;102511.19;;;-4.39;100.00
19789;BME280;10054;59.332;18.244;2023-02-04T04:06:00;102521.45;;;-4.40;100.00
19789;BME280;10054;59.332;18.244;2023-02-04T04:08:31;102522.23;;;-4.43;100.00
19789;BME280;10054;59.332;18.244;2023-02-04T04:11:00;102528.17;;;-4.45;100.00
19789;BME280;10054;59.332;18.244;2023-02-04T04:13:29;102543.11;;;-4.49;100.00
19789;BME280;10054;59.332;18.244;2023-02-04T04:15:58;102547.75;;;-4.52;100.00
19789;BME280;10054;59.332;18.244;2023-02-04T04:18:27;102545.09;;;-4.55;100.00
19789;BME280;10054;59.332;18.244;2023-02-04T04:20:56;102554.05;;;-4.56;100.00
19789;BME280;10054;59.332;18.244;2023-02-04T04:23:25;102562.09;;;-4.60;100.00
19789;BME280;10054;59.332;18.244;2023-02-04T04:25:54;102565.96;;;-4.60;100.00
19789;BME280;10054;59.332;18.244;2023-02-04T04:28:23;102567.20;;;-4.61;100.00
19789;BME280;10054;59.332;18.244;2023-02-04T04:30:52;102572.77;;;-4.62;100.00
19789;BME280;10054;59.332;18.244;2023-02-04T04:33:21;102574.38;;;-4.66;100.00
19789;BME280;10054;59.332;18.244;2023-02-04T04:35:50;102572.63;;;-4.67;100.00
19789;BME280;10054;59.332;18.244;2023-02-04T04:38:18;102572.98;;;-4.69;100.00
19789;BME280;10054;59.332;18.244;2023-02-04T04:40:47;102579.06;;;-4.67;100.00
19789;BME280;10054;59.332;18.244;2023-02-04T04:43:16;102581.46;;;-4.58;100.00
19789;BME280;10054;59.332;18.244;2023-02-04T04:45:45;102589.23;;;-4.57;100.00
19789;BME280;10054;59.332;18.244;2023-02-04T04:48:13;102594.19;;;-4.63;100.00
19789;BME280;10054;59.332;18.244;2023-02-04T04:50:42;102601.36;;;-4.67;100.00
19789;BME280;10054;59.332;18.244;2023-02-04T04:53:13;102612.02;;;-4.69;100.00
19789;BME280;10054;59.332;18.244;2023-02-04T04:55:41;102617.08;;;-4.72;100.00
19789;BME280;10054;59.332;18.244;2023-02-04T04:58:10;102626.86;;;-4.75;100.00
19789;BME280;10054;59.332;18.244;2023-02-04T05:00:39;102631.09;;;-4.77;100.00
19789;BME280;10054;59.332;18.244;2023-02-04T05:03:08;102626.30;;;-4.79;100.00
19789;BME280;10054;59.332;18.244;2023-02-04T05:05:37;102626.66;;;-4.81;100.00
19789;BME280;10054;59.332;18.244;2023-02-04T05:08:07;102630.11;;;-4.80;100.00
19789;BME280;10054;59.332;18.244;2023-02-04T05:10:40;102627.54;;;-4.80;100.00
19789;BME280;10054;59.332;18.244;2023-02-04T05:13:09;102639.59;;;-4.79;100.00
19789;BME280;10054;59.332;18.244;2023-02-04T05:15:40;102641.29;;;-4.80;100.00
19789;BME280;10054;59.332;18.244;2023-02-04T05:18:09;102645.56;;;-4.80;100.00
19789;BME280;10054;59.332;18.244;2023-02-04T05:20:37;102651.13;;;-4.81;100.00
19789;BME280;10054;59.332;18.244;2023-02-04T05:23:07;102653.70;;;-4.81;100.00
19789;BME280;10054;59.332;18.244;2023-02-04T05:25:35;102660.95;;;-4.82;100.00
19789;BME280;10054;59.332;18.244;2023-02-04T05:28:05;102666.20;;;-4.79;100.00
19789;BME280;10054;59.332;18.244;2023-02-04T05:30:33;102670.63;;;-4.75;100.00
19789;BME280;10054;59.332;18.244;2023-02-04T05:33:02;102669.91;;;-4.71;100.00
19789;BME280;10054;59.332;18.244;2023-02-04T05:35:33;102671.66;;;-4.70;100.00
19789;BME280;10054;59.332;18.244;2023-02-04T05:38:02;102681.49;;;-4.71;100.00
19789;BME280;10054;59.332;18.244;2023-02-04T05:40:31;102682.73;;;-4.72;100.00
19789;BME280;10054;59.332;18.244;2023-02-04T05:43:00;102688.24;;;-4.74;100.00
19789;BME280;10054;59.332;18.244;2023-02-04T05:45:29;102696.79;;;-4.75;100.00
19789;BME280;10054;59.332;18.244;2023-02-04T05:47:57;102707.03;;;-4.77;100.00
19789;BME280;10054;59.332;18.244;2023-02-04T05:50:26;102703.54;;;-4.79;100.00
19789;BME280;10054;59.332;18.244;2023-02-04T05:52:57;102704.83;;;-4.79;100.00
19789;BME280;10054;59.332;18.244;2023-02-04T05:55:25;102702.61;;;-4.81;100.00
19789;BME280;10054;59.332;18.244;2023-02-04T05:57:54;102708.17;;;-4.81;100.00
19789;BME280;10054;59.332;18.244;2023-02-04T06:00:23;102715.02;;;-4.82;100.00
19789;BME280;10054;59.332;18.244;2023-02-04T06:02:52;102715.02;;;-4.82;100.00
19789;BME280;10054;59.332;18.244;2023-02-04T06:05:21;102711.52;;;-4.84;100.00
19789;BME280;10054;59.332;18.244;2023-02-04T06:07:50;102722.17;;;-4.86;100.00
19789;BME280;10054;59.332;18.244;2023-02-04T06:10:19;102731.18;;;-4.86;100.00
19789;BME280;10054;59.332;18.244;2023-02-04T06:12:48;102729.33;;;-4.90;100.00
19789;BME280;10054;59.332;18.244;2023-02-04T06:15:17;102733.65;;;-4.89;100.00
19789;BME280;10054;59.332;18.244;2023-02-04T06:17:47;102738.85;;;-4.87;100.00
19789;BME280;10054;59.332;18.244;2023-02-04T06:20:16;102732.58;;;-4.83;100.00
19789;BME280;10054;59.332;18.244;2023-02-04T06:22:45;102738.24;;;-4.80;100.00
19789;BME280;10054;59.332;18.244;2023-02-04T06:25:14;102745.91;;;-4.82;100.00
19789;BME280;10054;59.332;18.244;2023-02-04T06:27:42;102754.35;;;-4.86;100.00
19789;BME280;10054;59.332;18.244;2023-02-04T06:30:12;102751.31;;;-4.87;100.00
19789;BME280;10054;59.332;18.244;2023-02-04T06:32:41;102753.73;;;-4.91;100.00
19789;BME280;10054;59.332;18.244;2023-02-04T06:35:10;102756.19;;;-4.94;100.00
19789;BME280;10054;59.332;18.244;2023-02-04T06:37:39;102764.33;;;-4.95;100.00
19789;BME280;10054;59.332;18.244;2023-02-04T06:40:10;102768.55;;;-4.97;100.00
19789;BME280;10054;59.332;18.244;2023-02-04T06:42:39;102771.12;;;-4.97;100.00
19789;BME280;10054;59.332;18.244;2023-02-04T06:45:08;102781.82;;;-4.98;100.00
19789;BME280;10054;59.332;18.244;2023-02-04T06:47:37;102784.34;;;-4.99;100.00
19789;BME280;10054;59.332;18.244;2023-02-04T06:50:06;102787.33;;;-5.00;100.00
19789;BME280;10054;59.332;18.244;2023-02-04T06:52:35;102786.39;;;-5.02;100.00
19789;BME280;10054;59.332;18.244;2023-02-04T06:55:04;102791.95;;;-5.02;100.00
19789;BME280;10054;59.332;18.244;2023-02-04T06:57:33;102791.48;;;-5.03;100.00
19789;BME280;10054;59.332;18.244;2023-02-04T07:00:03;102792.72;;;-5.05;100.00
19789;BME280;10054;59.332;18.244;2023-02-04T07:02:31;102799.56;;;-5.05;100.00
19789;BME280;10054;59.332;18.244;2023-02-04T07:05:00;102796.63;;;-5.03;100.00
19789;BME280;10054;59.332;18.244;2023-02-04T07:07:29;102811.36;;;-4.99;100.00
19789;BME280;10054;59.332;18.244;2023-02-04T07:09:58;102802.98;;;-4.93;100.00
19789;BME280;10054;59.332;18.244;2023-02-04T07:12:27;102812.58;;;-4.89;100.00
19789;BME280;10054;59.332;18.244;2023-02-04T07:14:55;102820.23;;;-4.91;100.00
19789;BME280;10054;59.332;18.244;2023-02-04T07:17:24;102827.91;;;-4.92;100.00
19789;BME280;10054;59.332;18.244;2023-02-04T07:19:53;102827.44;;;-4.93;100.00
19789;BME280;10054;59.332;18.244;2023-02-04T07:22:22;102828.67;;;-4.95;100.00
19789;BME280;10054;59.332;18.244;2023-02-04T07:24:51;102836.80;;;-4.96;100.00
19789;BME280;10054;59.332;18.244;2023-02-04T07:27:19;102849.73;;;-4.94;100.00
19789;BME280;10054;59.332;18.244;2023-02-04T07:29:48;102853.95;;;-4.96;100.00
19789;BME280;10054;59.332;18.244;2023-02-04T07:32:17;102867.69;;;-4.96;100.00
19789;BME280;10054;59.332;18.244;2023-02-04T07:34:46;102868.92;;;-4.97;100.00
19789;BME280;10054;59.332;18.244;2023-02-04T07:37:15;102883.48;;;-4.98;100.00
19789;BME280;10054;59.332;18.244;2023-02-04T07:39:44;102880.09;;;-4.97;100.00
19789;BME280;10054;59.332;18.244;2023-02-04T07:42:12;102873.19;;;-4.98;100.00
19789;BME280;10054;59.332;18.244;2023-02-04T07:44:43;102893.84;;;-4.96;100.00
19789;BME280;10054;59.332;18.244;2023-02-04T07:47:12;102886.47;;;-4.98;100.00
19789;BME280;10054;59.332;18.244;2023-02-04T07:49:40;102889.92;;;-4.98;100.00
19789;BME280;10054;59.332;18.244;2023-02-04T07:52:10;102890.39;;;-4.97;100.00
19789;BME280;10054;59.332;18.244;2023-02-04T07:54:39;102892.14;;;-4.96;100.00
19789;BME280;10054;59.332;18.244;2023-02-04T07:57:07;102893.60;;;-4.91;100.00
19789;BME280;10054;59.332;18.244;2023-02-04T07:59:36;102902.08;;;-4.82;100.00
19789;BME280;10054;59.332;18.244;2023-02-04T08:02:05;102903.06;;;-4.79;100.00
19789;BME280;10054;59.332;18.244;2023-02-04T08:04:34;102901.78;;;-4.79;100.00
19789;BME280;10054;59.332;18.244;2023-02-04T08:07:04;102918.52;;;-4.79;100.00
19789;BME280;10054;59.332;18.244;2023-02-04T08:09:33;102916.05;;;-4.76;100.00
19789;BME280;10054;59.332;18.244;2023-02-04T08:12:02;102930.73;;;-4.73;100.00
19789;BME280;10054;59.332;18.244;2023-02-04T08:14:31;102918.73;;;-4.73;100.00
19789;BME280;10054;59.332;18.244;2023-02-04T08:17:00;102926.52;;;-4.71;100.00
19789;BME280;10054;59.332;18.244;2023-02-04T08:19:28;102933.37;;;-4.72;100.00
19789;BME280;10054;59.332;18.244;2023-02-04T08:21:57;102925.64;;;-4.72;100.00
19789;BME280;10054;59.332;18.244;2023-02-04T08:24:26;102926.00;;;-4.74;100.00
19789;BME280;10054;59.332;18.244;2023-02-04T08:26:55;102939.80;;;-4.72;100.00
19789;BME280;10054;59.332;18.244;2023-02-04T08:29:25;102933.48;;;-4.69;100.00
19789;BME280;10054;59.332;18.244;2023-02-04T08:31:54;102942.55;;;-4.67;100.00
19789;BME280;10054;59.332;18.244;2023-02-04T08:34:23;102954.31;;;-4.62;100.00
19789;BME280;10054;59.332;18.244;2023-02-04T08:36:55;102952.67;;;-4.60;100.00
19789;BME280;10054;59.332;18.244;2023-02-04T08:39:24;102960.51;;;-4.57;100.00
19789;BME280;10054;59.332;18.244;2023-02-04T08:41:52;102962.32;;;-4.55;100.00
19789;BME280;10054;59.332;18.244;2023-02-04T08:44:21;102967.64;;;-4.50;100.00
19789;BME280;10054;59.332;18.244;2023-02-04T08:46:50;102966.05;;;-4.47;100.00
19789;BME280;10054;59.332;18.244;2023-02-04T08:49:18;102969.64;;;-4.42;100.00
19789;BME280;10054;59.332;18.244;2023-02-04T08:51:47;102975.67;;;-4.41;100.00
19789;BME280;10054;59.332;18.244;2023-02-04T08:54:16;102988.91;;;-4.43;100.00
19789;BME280;10054;59.332;18.244;2023-02-04T08:56:45;102980.69;;;-4.46;100.00
19789;BME280;10054;59.332;18.244;2023-02-04T08:59:14;102981.52;;;-4.47;100.00
19789;BME280;10054;59.332;18.244;2023-02-04T09:01:43;102990.61;;;-4.44;100.00
19789;BME280;10054;59.332;18.244;2023-02-04T09:04:13;102993.23;;;-4.42;100.00
19789;BME280;10054;59.332;18.244;2023-02-04T09:06:42;102997.16;;;-4.41;100.00
19789;BME280;10054;59.332;18.244;2023-02-04T09:09:12;102995.63;;;-4.36;100.00
19789;BME280;10054;59.332;18.244;2023-02-04T09:11:41;103004.30;;;-4.34;100.00
19789;BME280;10054;59.332;18.244;2023-02-04T09:14:10;103003.23;;;-4.27;100.00
19789;BME280;10054;59.332;18.244;2023-02-04T09:16:39;103007.20;;;-4.24;100.00
19789;BME280;10054;59.332;18.244;2023-02-04T09:19:08;103010.42;;;-4.19;100.00
19789;BME280;10054;59.332;18.244;2023-02-04T09:21:40;103017.49;;;-4.13;100.00
19789;BME280;10054;59.332;18.244;2023-02-04T09:24:08;103011.57;;;-4.11;100.00
19789;BME280;10054;59.332;18.244;2023-02-04T09:26:37;103020.41;;;-4.04;100.00
19789;BME280;10054;59.332;18.244;2023-02-04T09:29:06;103024.48;;;-3.98;100.00
19789;BME280;10054;59.332;18.244;2023-02-04T09:31:35;103026.92;;;-3.90;100.00
19789;BME280;10054;59.332;18.244;2023-02-04T09:34:05;103029.36;;;-3.82;100.00
19789;BME280;10054;59.332;18.244;2023-02-04T09:36:35;103027.98;;;-3.72;100.00
19789;BME280;10054;59.332;18.244;2023-02-04T09:39:08;103025.73;;;-3.61;100.00
19789;BME280;10054;59.332;18.244;2023-02-04T09:41:41;103033.17;;;-3.58;100.00
19789;BME280;10054;59.332;18.244;2023-02-04T09:44:12;103027.23;;;-3.55;100.00
19789;BME280;10054;59.332;18.244;2023-02-04T09:46:47;103027.75;;;-3.53;100.00
19789;BME280;10054;59.332;18.244;2023-02-04T09:49:17;103030.02;;;-3.49;100.00
19789;BME280;10054;59.332;18.244;2023-02-04T09:51:46;103047.36;;;-3.45;100.00
19789;BME280;10054;59.332;18.244;2023-02-04T09:54:18;103039.78;;;-3.41;100.00
19789;BME280;10054;59.332;18.244;2023-02-04T09:56:47;103044.16;;;-3.38;100.00
19789;BME280;10054;59.332;18.244;2023-02-04T09:59:19;103042.25;;;-3.31;100.00
19789;BME280;10054;59.332;18.244;2023-02-04T10:01:59;103048.44;;;-3.26;100.00
19789;BME280;10054;59.332;18.244;2023-02-04T10:04:29;103049.88;;;-3.21;100.00
19789;BME280;10054;59.332;18.244;2023-02-04T10:06:58;103052.67;;;-3.15;100.00
19789;BME280;10054;59.332;18.244;2023-02-04T10:09:26;103061.34;;;-3.13;100.00
19789;BME280;10054;59.332;18.244;2023-02-04T10:11:55;103052.92;;;-3.08;100.00
19789;BME280;10054;59.332;18.244;2023-02-04T10:14:24;103059.47;;;-3.05;100.00
19789;BME280;10054;59.332;18.244;2023-02-04T10:16:57;103061.74;;;-3.01;100.00
19789;BME280;10054;59.332;18.244;2023-02-04T10:19:28;103062.27;;;-2.97;100.00
19789;BME280;10054;59.332;18.244;2023-02-04T10:21:58;103058.95;;;-2.93;100.00
19789;BME280;10054;59.332;18.244;2023-02-04T10:24:27;103064.73;;;-2.87;100.00
19789;BME280;10054;59.332;18.244;2023-02-04T10:27:11;103071.34;;;-2.83;100.00
19789;BME280;10054;59.332;18.244;2023-02-04T10:29:42;103070.55;;;-2.80;100.00
19789;BME280;10054;59.332;18.244;2023-02-04T10:32:29;103067.66;;;-2.77;100.00
19789;BME280;10054;59.332;18.244;2023-02-04T10:35:00;103078.45;;;-2.76;100.00
19789;BME280;10054;59.332;18.244;2023-02-04T10:37:30;103084.17;;;-2.72;100.00
19789;BME280;10054;59.332;18.244;2023-02-04T10:39:58;103092.95;;;-2.67;100.00
19789;BME280;10054;59.332;18.244;2023-02-04T10:42:29;103090.09;;;-2.61;100.00
19789;BME280;10054;59.332;18.244;2023-02-04T10:44:59;103091.89;;;-2.59;100.00
19789;BME280;10054;59.332;18.244;2023-02-04T10:47:28;103100.20;;;-2.55;100.00
19789;BME280;10054;59.332;18.244;2023-02-04T10:50:03;103098.50;;;-2.54;100.00
19789;BME280;10054;59.332;18.244;2023-02-04T10:52:39;103105.42;;;-2.53;100.00
19789;BME280;10054;59.332;18.244;2023-02-04T10:55:15;103104.32;;;-2.47;100.00
19789;BME280;10054;59.332;18.244;2023-02-04T10:57:46;103101.00;;;-2.43;100.00
19789;BME280;10054;59.332;18.244;2023-02-04T11:00:23;103108.39;;;-2.41;100.00
19789;BME280;10054;59.332;18.244;2023-02-04T11:03:05;103106.72;;;-2.39;100.00
19789;BME280;10054;59.332;18.244;2023-02-04T11:05:35;103103.63;;;-2.42;100.00
19789;BME280;10054;59.332;18.244;2023-02-04T11:08:24;103109.68;;;-2.41;100.00
19789;BME280;10054;59.332;18.244;2023-02-04T11:11:03;103108.80;;;-2.42;100.00
19789;BME280;10054;59.332;18.244;2023-02-04T11:13:45;103104.83;;;-2.45;100.00
19789;BME280;10054;59.332;18.244;2023-02-04T11:16:45;103106.63;;;-2.42;100.00
19789;BME280;10054;59.332;18.244;2023-02-04T11:19:13;103109.62;;;-2.43;100.00
19789;BME280;10054;59.332;18.244;2023-02-04T11:21:41;103101.55;;;-2.39;100.00
19789;BME280;10054;59.332;18.244;2023-02-04T11:26:44;103112.59;;;-2.30;100.00
19789;BME280;10054;59.332;18.244;2023-02-04T11:29:24;103113.98;;;-2.27;100.00
19789;BME280;10054;59.332;18.244;2023-02-04T11:31:57;103109.31;;;-2.25;100.00
19789;BME280;10054;59.332;18.244;2023-02-04T11:34:28;103107.14;;;-2.25;100.00
19789;BME280;10054;59.332;18.244;2023-02-04T11:42:04;103115.56;;;-2.17;100.00
19789;BME280;10054;59.332;18.244;2023-02-04T11:44:33;103113.94;;;-2.13;100.00
19789;BME280;10054;59.332;18.244;2023-02-04T11:47:06;103115.97;;;-2.17;100.00
19789;BME280;10054;59.332;18.244;2023-02-04T11:49:35;103110.94;;;-2.13;100.00
19789;BME280;10054;59.332;18.244;2023-02-04T11:52:06;103120.36;;;-2.15;100.00
19789;BME280;10054;59.332;18.244;2023-02-04T11:54:36;103122.48;;;-2.16;100.00
19789;BME280;10054;59.332;18.244;2023-02-04T11:57:08;103118.61;;;-2.16;100.00
19789;BME280;10054;59.332;18.244;2023-02-04T11:59:36;103122.58;;;-2.13;100.00
19789;BME280;10054;59.332;18.244;2023-02-04T12:02:20;103129.50;;;-2.12;100.00
19789;BME280;10054;59.332;18.244;2023-02-04T12:04:57;103128.67;;;-2.11;100.00
19789;BME280;10054;59.332;18.244;2023-02-04T12:07:28;103132.22;;;-2.07;100.00
19789;BME280;10054;59.332;18.244;2023-02-04T12:09:57;103134.81;;;-2.07;100.00
19789;BME280;10054;59.332;18.244;2023-02-04T12:12:30;103137.39;;;-2.07;100.00
19789;BME280;10054;59.332;18.244;2023-02-04T12:15:12;103143.41;;;-2.08;100.00
19789;BME280;10054;59.332;18.244;2023-02-04T12:17:40;103142.98;;;-2.08;100.00
19789;BME280;10054;59.332;18.244;2023-02-04T12:20:11;103150.84;;;-2.05;100.00
19789;BME280;10054;59.332;18.244;2023-02-04T12:22:41;103153.52;;;-2.02;100.00
19789;BME280;10054;59.332;18.244;2023-02-04T12:25:10;103148.62;;;-2.07;100.00
19789;BME280;10054;59.332;18.244;2023-02-04T12:27:40;103149.03;;;-2.07;100.00
19789;BME280;10054;59.332;18.244;2023-02-04T12:30:10;103151.76;;;-2.03;100.00
19789;BME280;10054;59.332;18.244;2023-02-04T12:32:39;103151.02;;;-1.99;100.00
19789;BME280;10054;59.332;18.244;2023-02-04T12:35:08;103147.55;;;-1.99;100.00
19789;BME280;10054;59.332;18.244;2023-02-04T12:37:37;103145.47;;;-1.96;100.00
19789;BME280;10054;59.332;18.244;2023-02-04T12:40:06;103147.51;;;-2.01;100.00
19789;BME280;10054;59.332;18.244;2023-02-04T12:42:35;103153.14;;;-2.00;100.00
19789;BME280;10054;59.332;18.244;2023-02-04T12:45:04;103145.30;;;-2.03;100.00
19789;BME280;10054;59.332;18.244;2023-02-04T12:47:33;103150.47;;;-2.03;100.00
19789;BME280;10054;59.332;18.244;2023-02-04T12:50:02;103152.69;;;-2.01;100.00
19789;BME280;10054;59.332;18.244;2023-02-04T12:52:31;103151.44;;;-1.99;100.00